Time;durP1;ratioP1;P1;durP2;ratioP2;P2;SDS_P1;SDS_P2;PMS_P1;PMS_P2;Temp;Humidity;BMP_temperature;BMP_pressure;BME280_temperature;BME280_humidity;BME280_pressure;Samples;Min_cycle;Max_cycle;Signal;HPM_P1;HPM_P2
2022/12/22 03:26:02;;;;;;;2.90;2.50;;;9.30;99.90;;;;;;4997716;28;20475;-67
2022/12/22 03:28:29;;;;;;;2.80;2.50;;;9.30;99.90;;;;;;4997410;28;20453;-64
2022/12/22 03:30:59;;;;;;;2.63;2.43;;;9.40;99.90;;;;;;4997586;28;20559;-64
2022/12/22 03:33:28;;;;;;;2.80;2.40;;;9.40;99.90;;;;;;4998323;28;20473;-65
2022/12/22 03:35:56;;;;;;;2.73;2.27;;;9.40;99.90;;;;;;4998196;28;20471;-65
2022/12/22 03:38:23;;;;;;;3.27;2.23;;;9.40;99.90;;;;;;5001627;28;20496;-66
2022/12/22 03:40:50;;;;;;;2.40;2.10;;;9.40;99.90;;;;;;5001814;28;20464;-64
2022/12/22 03:49:08;;;;;;;2.40;2.00;;;9.40;99.90;;;;;;5001016;28;20435;-66
2022/12/22 03:51:37;;;;;;;2.47;2.27;;;9.40;99.90;;;;;;5001841;28;20890;-67
2022/12/22 03:54:04;;;;;;;2.70;2.17;;;9.40;99.90;;;;;;5001681;28;20595;-66
2022/12/22 03:56:31;;;;;;;2.67;2.07;;;9.40;99.90;;;;;;5001121;28;20941;-67
2022/12/22 03:58:59;;;;;;;3.30;2.50;;;9.40;99.90;;;;;;5001069;28;20503;-67
2022/12/22 04:01:26;;;;;;;3.50;2.67;;;9.40;99.90;;;;;;5001272;28;20782;-67
2022/12/22 04:03:54;;;;;;;2.30;2.03;;;9.40;99.90;;;;;;5001045;28;20465;-65
2022/12/22 04:06:22;;;;;;;3.07;2.50;;;9.40;99.90;;;;;;5017262;28;20494;-64
2022/12/22 04:08:49;;;;;;;2.60;2.10;;;9.40;99.90;;;;;;5019581;28;20558;-65
2022/12/22 04:14:02;;;;;;;2.90;2.00;;;9.50;99.90;;;;;;5019005;28;20435;-64
2022/12/22 04:16:30;;;;;;;3.00;2.40;;;9.40;99.90;;;;;;5019982;28;20564;-65
2022/12/22 04:18:59;;;;;;;2.70;2.20;;;9.50;99.90;;;;;;5019640;28;20590;-65
2022/12/22 04:21:26;;;;;;;3.30;2.10;;;9.50;99.90;;;;;;5019984;28;20472;-64
2022/12/22 04:23:53;;;;;;;3.23;2.07;;;9.50;99.90;;;;;;5019756;28;20911;-65
2022/12/22 04:26:22;;;;;;;2.63;2.37;;;9.50;99.90;;;;;;5019844;28;20466;-65
2022/12/22 04:28:50;;;;;;;2.30;1.77;;;9.40;99.90;;;;;;5019445;28;20550;-65
2022/12/22 04:31:18;;;;;;;3.60;2.23;;;9.50;99.90;;;;;;5019686;28;20468;-65
2022/12/22 04:33:45;;;;;;;3.37;2.00;;;9.50;99.90;;;;;;5019532;28;20956;-65
2022/12/22 04:36:14;;;;;;;3.13;2.13;;;9.50;99.90;;;;;;5019565;28;20555;-65
2022/12/22 04:38:51;;;;;;;2.67;2.13;;;9.50;99.90;;;;;;5019602;28;20759;-65
2022/12/22 04:41:18;;;;;;;3.17;2.27;;;9.50;99.90;;;;;;5019269;28;20468;-65
2022/12/22 04:43:45;;;;;;;2.63;2.20;;;9.50;99.90;;;;;;5019480;28;20474;-65
2022/12/22 04:46:12;;;;;;;3.20;2.03;;;9.50;99.90;;;;;;5019415;28;20905;-65
2022/12/22 04:48:39;;;;;;;3.73;2.00;;;9.50;99.90;;;;;;5018847;28;20464;-65
2022/12/22 04:51:06;;;;;;;5.00;1.97;;;9.50;99.90;;;;;;5019063;28;20746;-65
2022/12/22 04:53:35;;;;;;;2.03;1.57;;;9.50;99.90;;;;;;5019112;28;20464;-65
2022/12/22 04:56:05;;;;;;;2.10;1.90;;;9.50;99.90;;;;;;5019594;28;20464;-65
2022/12/22 04:58:32;;;;;;;3.37;1.93;;;9.50;99.90;;;;;;5018601;28;20475;-65
2022/12/22 05:01:09;;;;;;;2.60;1.90;;;9.50;99.90;;;;;;5018761;28;20474;-65
2022/12/22 05:03:36;;;;;;;2.63;1.70;;;9.50;99.90;;;;;;5019295;28;20467;-65
2022/12/22 05:06:03;;;;;;;2.90;1.83;;;9.50;99.90;;;;;;4976049;28;1251091;-65
2022/12/22 05:08:30;;;;;;;3.53;2.10;;;9.50;99.90;;;;;;5019876;28;20459;-64
2022/12/22 05:10:59;;;;;;;2.20;1.90;;;9.50;99.90;;;;;;5019727;28;20470;-65
2022/12/22 05:13:26;;;;;;;3.20;2.20;;;9.50;99.90;;;;;;5019704;28;20470;-65
2022/12/22 05:15:53;;;;;;;2.20;1.73;;;9.40;99.90;;;;;;5020034;28;20468;-65
2022/12/22 05:18:20;;;;;;;3.17;2.10;;;9.40;99.90;;;;;;5019290;28;20468;-65
2022/12/22 05:20:47;;;;;;;2.47;2.07;;;9.30;99.90;;;;;;5020100;28;20495;-65
2022/12/22 05:23:15;;;;;;;3.67;2.07;;;9.40;99.90;;;;;;5019485;28;20467;-65
2022/12/22 05:25:42;;;;;;;3.20;2.07;;;9.40;99.90;;;;;;5019946;28;20468;-65
2022/12/22 05:28:10;;;;;;;3.10;2.00;;;9.40;99.90;;;;;;5019901;28;20558;-65
2022/12/22 05:30:37;;;;;;;2.90;2.50;;;9.40;99.90;;;;;;5019814;28;20464;-65
2022/12/22 05:33:04;;;;;;;4.03;2.20;;;9.40;99.90;;;;;;5018975;28;20748;-65
2022/12/22 05:35:32;;;;;;;2.70;2.00;;;9.40;99.90;;;;;;5018963;28;20510;-65
2022/12/22 05:37:59;;;;;;;3.90;2.20;;;9.40;99.90;;;;;;5019655;28;20468;-65
2022/12/22 05:40:26;;;;;;;2.40;2.13;;;9.50;99.90;;;;;;5019687;28;20492;-65
2022/12/22 05:42:54;;;;;;;4.03;2.33;;;9.40;99.90;;;;;;5019278;28;20487;-65
2022/12/22 05:45:23;;;;;;;3.40;2.20;;;9.40;99.90;;;;;;5019466;28;20500;-65
2022/12/22 05:47:51;;;;;;;3.70;2.63;;;9.50;99.90;;;;;;5019312;28;20467;-65
2022/12/22 05:50:22;;;;;;;3.27;2.17;;;9.50;99.90;;;;;;5019291;28;20434;-65
2022/12/22 05:52:49;;;;;;;2.90;2.10;;;9.50;99.90;;;;;;5018682;28;20555;-65
2022/12/22 05:55:17;;;;;;;3.07;2.10;;;9.50;99.90;;;;;;5018748;28;20464;-65
2022/12/22 05:57:44;;;;;;;3.23;2.33;;;9.40;99.90;;;;;;5018960;28;20464;-65
2022/12/22 06:00:15;;;;;;;2.97;2.27;;;9.30;99.90;;;;;;5018215;28;20812;-66
2022/12/22 06:02:45;;;;;;;2.40;2.20;;;9.40;99.90;;;;;;5018567;28;20468;-65
2022/12/22 06:05:13;;;;;;;3.80;2.17;;;9.40;99.90;;;;;;5018186;28;20488;-65
2022/12/22 06:07:41;;;;;;;13.00;11.63;;;9.30;99.90;;;;;;5018635;28;20885;-65
2022/12/22 06:10:10;;;;;;;4.70;4.30;;;9.30;99.90;;;;;;5019017;28;20456;-65
2022/12/22 06:12:38;;;;;;;5.00;4.50;;;9.30;99.90;;;;;;5018308;28;20468;-65
2022/12/22 06:15:06;;;;;;;4.20;3.17;;;9.30;99.90;;;;;;5018725;28;20533;-66
2022/12/22 06:17:34;;;;;;;5.70;3.10;;;9.30;99.90;;;;;;5018728;28;20753;-65
2022/12/22 06:20:02;;;;;;;3.40;3.10;;;9.30;99.90;;;;;;5018606;28;20492;-65
2022/12/22 06:22:30;;;;;;;5.43;3.23;;;9.20;99.90;;;;;;5018163;28;20769;-66
2022/12/22 06:24:57;;;;;;;3.57;3.27;;;9.30;99.90;;;;;;5017874;28;20558;-65
2022/12/22 06:27:24;;;;;;;3.57;3.03;;;9.40;99.90;;;;;;5055976;28;20462;-66
2022/12/22 06:29:52;;;;;;;3.10;2.80;;;9.40;99.90;;;;;;5057102;28;20760;-67
2022/12/22 06:32:19;;;;;;;4.27;3.60;;;9.40;99.90;;;;;;5057730;28;20557;-66
2022/12/22 06:34:46;;;;;;;4.83;4.20;;;9.50;99.90;;;;;;5057464;28;20466;-64
2022/12/22 06:37:15;;;;;;;3.47;3.17;;;9.50;99.90;;;;;;5033899;28;20919;-65
2022/12/22 06:39:42;;;;;;;4.67;3.57;;;9.50;99.90;;;;;;5017253;28;20499;-66
2022/12/22 06:44:54;;;;;;;4.67;4.00;;;9.40;99.90;;;;;;5017032;28;20514;-67
2022/12/22 06:47:21;;;;;;;4.27;3.87;;;9.40;99.90;;;;;;5016378;28;20464;-65
2022/12/22 06:49:49;;;;;;;5.07;4.57;;;9.40;99.90;;;;;;5018097;28;20486;-65
2022/12/22 06:52:17;;;;;;;5.60;4.57;;;9.40;99.90;;;;;;5017903;28;20936;-65
2022/12/22 06:54:45;;;;;;;7.27;5.10;;;9.40;99.90;;;;;;5017747;28;20486;-66
2022/12/22 06:57:12;;;;;;;5.00;4.50;;;9.40;99.90;;;;;;5015585;28;20468;-66
2022/12/22 06:59:39;;;;;;;5.50;4.80;;;9.30;99.90;;;;;;5015735;28;20502;-66
2022/12/22 07:02:06;;;;;;;6.70;4.83;;;9.30;99.90;;;;;;5016020;28;20727;-66
2022/12/22 07:04:33;;;;;;;5.93;4.87;;;9.40;99.90;;;;;;5015242;28;20466;-66
2022/12/22 07:07:00;;;;;;;8.20;5.10;;;9.30;99.90;;;;;;5015531;28;20771;-65
2022/12/22 07:09:29;;;;;;;8.60;5.00;;;9.40;99.90;;;;;;5015696;28;20460;-65
2022/12/22 07:11:56;;;;;;;10.80;6.20;;;9.40;99.90;;;;;;5016711;28;20909;-65
2022/12/22 07:14:23;;;;;;;8.93;5.50;;;9.40;99.90;;;;;;5028022;28;20463;-65
2022/12/22 07:16:50;;;;;;;7.57;5.53;;;9.40;99.90;;;;;;5036020;28;20506;-65
2022/12/22 07:19:17;;;;;;;6.83;6.13;;;9.30;99.90;;;;;;5035913;28;20502;-65
2022/12/22 07:21:46;;;;;;;6.77;5.60;;;9.30;99.90;;;;;;5036882;28;20771;-65
2022/12/22 07:24:15;;;;;;;7.50;6.10;;;9.30;99.90;;;;;;5036710;28;20469;-65
2022/12/22 07:26:43;;;;;;;6.50;5.90;;;9.40;99.90;;;;;;5036642;28;20471;-66
2022/12/22 07:29:11;;;;;;;7.37;6.07;;;9.40;99.90;;;;;;5036445;28;20463;-65
2022/12/22 07:31:38;;;;;;;6.20;5.60;;;9.40;99.90;;;;;;5036306;28;20896;-65
2022/12/22 07:34:05;;;;;;;6.57;5.43;;;9.40;99.90;;;;;;5037005;28;20470;-65
2022/12/22 07:36:33;;;;;;;7.83;6.30;;;9.30;99.90;;;;;;5036470;28;20470;-65
2022/12/22 07:39:00;;;;;;;6.93;6.20;;;9.40;99.90;;;;;;5036688;28;20448;-65
2022/12/22 07:44:13;;;;;;;8.43;7.40;;;9.40;99.90;;;;;;5036727;28;20438;-66
2022/12/22 07:46:40;;;;;;;6.80;5.70;;;9.40;99.90;;;;;;5036637;28;20899;-65
2022/12/22 07:51:52;;;;;;;7.60;6.47;;;9.40;99.90;;;;;;5035657;28;20428;-66
2022/12/22 07:54:19;;;;;;;8.43;6.13;;;9.50;99.90;;;;;;5035911;28;20898;-66
2022/12/22 07:56:47;;;;;;;7.37;6.67;;;9.40;99.90;;;;;;5036702;28;20835;-66
2022/12/22 07:59:16;;;;;;;7.50;6.80;;;9.50;99.90;;;;;;5036479;28;20469;-66
2022/12/22 08:01:44;;;;;;;7.97;6.77;;;9.50;99.90;;;;;;5036722;28;20463;-67
2022/12/22 08:04:12;;;;;;;9.90;8.17;;;9.50;99.90;;;;;;5036781;28;20445;-67
2022/12/22 08:06:39;;;;;;;8.67;6.27;;;9.50;99.90;;;;;;5035860;28;20486;-66
2022/12/22 08:09:08;;;;;;;9.17;7.20;;;9.50;99.90;;;;;;5034769;28;20443;-66
2022/12/22 08:11:36;;;;;;;9.13;7.23;;;9.60;99.90;;;;;;5034745;28;20464;-65
2022/12/22 08:14:03;;;;;;;8.00;7.17;;;9.60;99.90;;;;;;5034553;28;20505;-66
2022/12/22 08:16:31;;;;;;;8.23;7.13;;;9.60;99.90;;;;;;5034542;28;20463;-65
2022/12/22 08:18:59;;;;;;;10.17;8.87;;;9.60;99.90;;;;;;5034055;28;20877;-65
2022/12/22 08:21:26;;;;;;;9.30;8.17;;;9.60;99.90;;;;;;5034114;28;20501;-67
2022/12/22 08:23:53;;;;;;;10.83;8.50;;;9.60;99.90;;;;;;5038342;28;20467;-67
2022/12/22 08:26:25;;;;;;;12.40;8.83;;;9.60;99.90;;;;;;5039137;28;20661;-66
2022/12/22 08:28:56;;;;;;;10.67;8.83;;;9.60;99.90;;;;;;5039042;28;20766;-66
2022/12/22 08:31:27;;;;;;;12.60;10.07;;;9.70;99.90;;;;;;5038401;28;20908;-66
2022/12/22 08:33:56;;;;;;;14.60;11.10;;;9.70;99.90;;;;;;5039355;28;20463;-66
2022/12/22 08:36:24;;;;;;;12.23;10.50;;;9.70;99.90;;;;;;5039580;28;20467;-66
2022/12/22 08:38:52;;;;;;;12.77;10.77;;;9.70;99.90;;;;;;5038892;28;20466;-65
2022/12/22 08:41:48;;;;;;;12.67;10.40;;;9.60;99.90;;;;;;5039561;28;20505;-65
2022/12/22 08:44:07;;;;;;;13.60;9.00;;;9.60;99.90;;;;;;5039777;28;20455;-65
2022/12/22 08:46:34;;;;;;;10.00;8.97;;;9.60;99.90;;;;;;5050650;28;20458;-67
2022/12/22 08:49:03;;;;;;;11.37;8.17;;;9.60;99.90;;;;;;5059744;28;20472;-67
2022/12/22 08:51:30;;;;;;;11.40;9.27;;;9.60;99.90;;;;;;5059568;28;20463;-67
2022/12/22 08:53:57;;;;;;;12.73;9.57;;;9.60;99.90;;;;;;5059719;28;20489;-67
2022/12/22 08:56:24;;;;;;;14.43;10.53;;;9.50;99.90;;;;;;5059543;28;20462;-66
2022/12/22 08:58:51;;;;;;;16.30;12.27;;;9.50;99.90;;;;;;5059517;28;20462;-65
2022/12/22 09:01:21;;;;;;;21.43;15.53;;;9.50;99.90;;;;;;5059259;28;20501;-66
2022/12/22 09:03:50;;;;;;;20.97;15.40;;;9.40;99.90;;;;;;5043530;28;20778;-66
2022/12/22 09:06:19;;;;;;;23.13;16.20;;;9.40;99.90;;;;;;5039005;28;20495;-65
2022/12/22 09:08:47;;;;;;;23.27;17.03;;;9.40;99.90;;;;;;5038428;28;20470;-65
2022/12/22 09:11:15;;;;;;;27.33;17.83;;;9.40;99.90;;;;;;5039130;28;20463;-65
2022/12/22 09:13:42;;;;;;;31.03;17.93;;;9.40;99.90;;;;;;5039246;28;20513;-66
2022/12/22 09:16:10;;;;;;;24.47;18.27;;;9.40;99.90;;;;;;5039343;28;20514;-66
2022/12/22 09:18:37;;;;;;;29.53;18.50;;;9.40;99.90;;;;;;5038805;28;20467;-67
2022/12/22 09:21:05;;;;;;;28.10;19.30;;;9.30;99.90;;;;;;5039052;28;20513;-66
2022/12/22 09:23:33;;;;;;;30.77;20.57;;;9.40;99.90;;;;;;5039012;28;20443;-66
2022/12/22 09:26:00;;;;;;;30.87;21.90;;;9.40;99.90;;;;;;5038772;28;20934;-65
2022/12/22 09:28:27;;;;;;;40.50;23.77;;;9.30;99.90;;;;;;5038962;28;20444;-65
2022/12/22 09:30:55;;;;;;;43.37;26.27;;;9.30;99.90;;;;;;5038208;28;20468;-65
2022/12/22 09:33:25;;;;;;;42.63;26.43;;;9.20;99.90;;;;;;5038388;28;20488;-65
2022/12/22 09:35:52;;;;;;;42.07;27.40;;;9.30;99.90;;;;;;5038182;28;20463;-65
2022/12/22 09:38:19;;;;;;;43.67;26.03;;;9.30;99.90;;;;;;5038838;28;20473;-65
2022/12/22 09:40:48;;;;;;;46.20;28.30;;;9.30;99.90;;;;;;5038666;28;20462;-65
2022/12/22 09:43:19;;;;;;;49.77;29.93;;;9.30;99.90;;;;;;5038700;28;20487;-65
2022/12/22 09:45:46;;;;;;;54.27;30.03;;;9.40;99.90;;;;;;5038831;28;20753;-65
2022/12/22 09:48:14;;;;;;;85.90;45.33;;;9.40;99.90;;;;;;5038966;28;20470;-65
2022/12/22 09:50:42;;;;;;;51.07;29.40;;;9.40;99.90;;;;;;5038655;28;20733;-65
2022/12/22 09:53:23;;;;;;;49.30;29.10;;;9.40;99.90;;;;;;5038315;28;20438;-65
2022/12/22 09:55:52;;;;;;;43.20;27.10;;;9.40;99.90;;;;;;5038508;28;20759;-65
2022/12/22 09:58:25;;;;;;;40.57;24.03;;;9.40;99.90;;;;;;5038568;28;20758;-65
2022/12/22 10:00:58;;;;;;;42.33;26.23;;;9.40;99.90;;;;;;5038143;28;21005;-65
2022/12/22 10:03:34;;;;;;;39.53;23.50;;;9.50;99.90;;;;;;5037941;28;20558;-65
2022/12/22 10:06:08;;;;;;;29.63;20.00;;;9.50;99.90;;;;;;5035751;28;20495;-65
2022/12/22 10:08:40;;;;;;;29.53;19.33;;;9.60;99.90;;;;;;5036347;28;20516;-65
2022/12/22 10:11:13;;;;;;;31.93;18.17;;;9.60;99.90;;;;;;5033739;28;20465;-65
2022/12/22 10:13:41;;;;;;;23.27;17.30;;;9.80;99.90;;;;;;5037665;28;20469;-65
2022/12/22 10:16:22;;;;;;;20.67;16.63;;;9.80;99.90;;;;;;5037840;28;20469;-65
2022/12/22 10:19:01;;;;;;;23.53;17.20;;;9.80;99.90;;;;;;5036975;28;21002;-65
2022/12/22 10:21:28;;;;;;;22.10;15.77;;;9.80;99.90;;;;;;5035496;28;20501;-65
2022/12/22 10:23:55;;;;;;;20.03;15.47;;;9.80;99.90;;;;;;5037282;28;20538;-65
2022/12/22 10:26:25;;;;;;;19.53;15.07;;;9.90;99.90;;;;;;5017215;28;20494;-65
2022/12/22 10:28:58;;;;;;;21.80;16.63;;;10.00;99.90;;;;;;5017867;28;20747;-64
2022/12/22 10:31:27;;;;;;;20.40;15.20;;;10.00;99.90;;;;;;5017982;28;20456;-64
2022/12/22 10:33:56;;;;;;;21.27;16.20;;;9.90;99.90;;;;;;5018204;28;20464;-65
2022/12/22 10:36:26;;;;;;;23.00;16.43;;;9.80;99.90;;;;;;5016331;28;20464;-64
2022/12/22 10:39:00;;;;;;;26.10;17.93;;;9.80;99.90;;;;;;5016511;28;20794;-64
2022/12/22 10:41:32;;;;;;;34.00;21.73;;;9.80;99.90;;;;;;5016351;28;20487;-64
2022/12/22 10:44:01;;;;;;;29.57;21.03;;;9.70;99.90;;;;;;5015860;28;20492;-64
2022/12/22 10:46:38;;;;;;;30.17;18.77;;;9.70;99.90;;;;;;5015439;28;20456;-64
2022/12/22 10:49:13;;;;;;;26.07;18.10;;;9.50;99.90;;;;;;5016179;28;20851;-64
2022/12/22 10:51:42;;;;;;;21.53;15.60;;;9.40;99.90;;;;;;5018325;28;20470;-64
2022/12/22 10:54:23;;;;;;;28.77;18.20;;;9.40;99.90;;;;;;5017466;28;20464;-64
2022/12/22 10:57:00;;;;;;;25.30;17.50;;;9.20;99.90;;;;;;5016890;28;20467;-64
2022/12/22 10:59:27;;;;;;;24.10;16.07;;;9.20;99.90;;;;;;5017313;28;20464;-64
2022/12/22 11:01:54;;;;;;;24.90;17.37;;;9.20;99.90;;;;;;5016567;28;20490;-64
2022/12/22 11:04:24;;;;;;;27.33;18.73;;;9.10;99.90;;;;;;5016985;28;20468;-64
2022/12/22 11:06:52;;;;;;;26.93;18.30;;;9.20;99.90;;;;;;5017587;28;20460;-65
2022/12/22 11:09:20;;;;;;;28.53;17.47;;;9.10;99.90;;;;;;5017697;28;20468;-64
2022/12/22 11:11:51;;;;;;;27.53;18.33;;;9.20;99.90;;;;;;5024168;28;20915;-64
2022/12/22 11:14:30;;;;;;;29.57;18.77;;;9.20;99.90;;;;;;5026796;28;20758;-64
2022/12/22 11:17:03;;;;;;;22.87;17.43;;;9.10;99.90;;;;;;5035760;28;20552;-65
2022/12/22 11:19:50;;;;;;;25.30;17.73;;;9.20;99.90;;;;;;5050547;28;20520;-65
2022/12/22 11:22:31;;;;;;;29.53;17.10;;;9.20;99.90;;;;;;5057096;28;20772;-65
2022/12/22 11:25:19;;;;;;;27.57;20.37;;;9.20;99.90;;;;;;5056713;28;20462;-65
2022/12/22 11:27:59;;;;;;;27.50;19.13;;;9.20;99.90;;;;;;5056815;28;20480;-65
2022/12/22 11:30:36;;;;;;;31.60;18.60;;;9.10;99.90;;;;;;5056212;28;20473;-65
2022/12/22 11:33:26;;;;;;;27.00;18.60;;;9.10;99.90;;;;;;5050030;28;20471;-65
2022/12/22 11:35:57;;;;;;;27.77;18.33;;;9.20;99.90;;;;;;5030612;28;20449;-65
2022/12/22 11:38:45;;;;;;;25.77;16.33;;;9.40;99.90;;;;;;5017359;28;20445;-65
2022/12/22 11:41:29;;;;;;;22.30;15.80;;;9.60;99.90;;;;;;5016995;28;20495;-65
2022/12/22 11:44:11;;;;;;;22.80;15.73;;;9.90;99.90;;;;;;5017267;28;20464;-65
2022/12/22 11:46:47;;;;;;;24.50;16.53;;;10.20;99.90;;;;;;5015354;28;20468;-64
2022/12/22 11:49:43;;;;;;;20.17;15.10;;;10.40;99.90;;;;;;5034133;28;20462;-64
2022/12/22 11:52:29;;;;;;;18.33;13.60;;;10.50;99.90;;;;;;5036890;28;20547;-64
2022/12/22 11:55:14;;;;;;;19.03;14.90;;;10.40;99.90;;;;;;5036744;28;20467;-64
2022/12/22 11:57:52;;;;;;;17.43;13.47;;;10.40;99.90;;;;;;5037820;28;20505;-64
2022/12/22 12:00:20;;;;;;;18.97;12.90;;;10.40;99.90;;;;;;5031251;28;20558;-64
2022/12/22 12:03:09;;;;;;;18.53;13.70;;;10.30;99.90;;;;;;5021960;28;20871;-64
2022/12/22 12:05:43;;;;;;;19.33;13.63;;;10.20;99.90;;;;;;5018836;28;20503;-64
2022/12/22 12:08:20;;;;;;;17.67;12.97;;;10.40;99.90;;;;;;5018960;28;20434;-64
2022/12/22 12:10:51;;;;;;;21.20;13.60;;;10.20;99.90;;;;;;5017808;28;20460;-64
2022/12/22 12:13:29;;;;;;;20.23;14.67;;;10.20;99.90;;;;;;5018834;28;20484;-64
2022/12/22 12:16:08;;;;;;;18.77;14.13;;;10.40;99.90;;;;;;5018966;28;20758;-64
2022/12/22 12:18:52;;;;;;;18.57;13.17;;;10.60;99.90;;;;;;5019126;28;20463;-64
2022/12/22 12:21:26;;;;;;;17.57;13.57;;;10.90;99.90;;;;;;5018838;28;20492;-64
2022/12/22 12:24:13;;;;;;;17.57;12.87;;;11.20;99.90;;;;;;5019298;28;20469;-64
2022/12/22 12:26:50;;;;;;;18.63;12.80;;;11.20;99.90;;;;;;5017644;28;20451;-64
2022/12/22 12:29:20;;;;;;;16.30;12.63;;;10.90;99.90;;;;;;5015932;28;20562;-64
2022/12/22 12:31:50;;;;;;;21.20;12.27;;;10.60;99.90;;;;;;5016836;28;20779;-64
2022/12/22 12:34:20;;;;;;;17.23;13.50;;;10.60;99.90;;;;;;5015825;28;20464;-64
2022/12/22 12:36:53;;;;;;;18.10;12.73;;;10.90;99.90;;;;;;5016501;28;20470;-64
2022/12/22 12:39:31;;;;;;;14.80;13.07;;;11.00;99.90;;;;;;5016450;28;21102;-64
2022/12/22 12:42:05;;;;;;;14.47;12.00;;;11.10;99.90;;;;;;5016504;28;20513;-64
2022/12/22 12:44:35;;;;;;;16.43;11.53;;;11.10;99.90;;;;;;5018988;28;20467;-64
2022/12/22 12:47:25;;;;;;;14.20;10.90;;;10.80;99.90;;;;;;5019624;28;20445;-64
2022/12/22 12:50:02;;;;;;;16.30;11.90;;;10.90;99.90;;;;;;5020207;28;20460;-64
2022/12/22 12:53:03;;;;;;;17.83;11.07;;;11.00;99.90;;;;;;5019468;28;20459;-64
2022/12/22 12:55:32;;;;;;;16.20;12.67;;;10.80;99.90;;;;;;5019700;28;20459;-64
2022/12/22 12:58:02;;;;;;;14.00;11.70;;;10.70;1.00;;;;;;5020134;28;20712;-64
2022/12/22 13:00:47;;;;;;;16.27;13.20;;;10.50;1.00;;;;;;5018092;28;20464;-64
2022/12/22 13:03:37;;;;;;;17.60;12.67;;;10.50;1.00;;;;;;5019133;28;20775;-64
2022/12/22 13:06:08;;;;;;;16.27;12.80;;;10.60;27.50;;;;;;5019224;28;20502;-64
2022/12/22 13:09:12;;;;;;;23.20;16.30;;;10.70;1.00;;;;;;5027189;28;20463;-64
2022/12/22 13:11:39;;;;;;;19.37;14.80;;;10.80;1.00;;;;;;5027004;28;20753;-64
2022/12/22 13:14:07;;;;;;;19.83;13.80;;;10.80;1.00;;;;;;5037239;28;20459;-64
2022/12/22 13:16:36;;;;;;;16.90;13.20;;;10.80;85.50;;;;;;5037340;28;20440;-64
2022/12/22 13:19:12;;;;;;;17.83;12.67;;;10.50;1.00;;;;;;5037674;28;20900;-64
2022/12/22 13:21:43;;;;;;;18.20;13.63;;;10.40;1.00;;;;;;5037579;28;20509;-64
2022/12/22 13:24:21;;;;;;;17.43;12.87;;;10.50;99.90;;;;;;5023123;28;20452;-64
2022/12/22 13:26:53;;;;;;;14.87;11.97;;;10.40;99.90;;;;;;5021101;28;20455;-64
2022/12/22 13:29:27;;;;;;;15.93;11.97;;;10.20;99.90;;;;;;5025453;28;20463;-64
2022/12/22 13:31:59;;;;;;;16.87;13.17;;;10.00;99.90;;;;;;5026794;28;20467;-64
2022/12/22 13:34:42;;;;;;;17.67;13.40;;;10.00;99.90;;;;;;5017904;28;20828;-64
2022/12/22 13:37:21;;;;;;;23.10;13.13;;;9.80;99.90;;;;;;5017471;28;20467;-65
2022/12/22 13:40:10;;;;;;;18.90;14.07;;;9.60;99.90;;;;;;5017719;28;20903;-64
2022/12/22 13:42:40;;;;;;;18.10;13.17;;;9.60;99.90;;;;;;5028229;28;20487;-64
2022/12/22 13:45:18;;;;;;;16.47;12.00;;;9.60;99.90;;;;;;5026773;28;20455;-64
2022/12/22 13:47:48;;;;;;;15.47;12.83;;;9.60;99.90;;;;;;5021648;28;20471;-64
2022/12/22 13:50:20;;;;;;;16.10;12.83;;;9.50;99.90;;;;;;5025168;28;20552;-64
2022/12/22 13:52:50;;;;;;;17.63;12.50;;;9.50;99.90;;;;;;5013160;28;20444;-64
2022/12/22 13:55:21;;;;;;;18.03;12.43;;;9.50;99.90;;;;;;5022223;28;20459;-64
2022/12/22 13:57:49;;;;;;;17.77;13.27;;;9.50;99.90;;;;;;5025198;28;20454;-64
2022/12/22 14:00:21;;;;;;;16.33;13.30;;;9.50;99.90;;;;;;5026386;28;20463;-64
2022/12/22 14:02:49;;;;;;;15.80;11.90;;;9.40;1.00;;;;;;5023277;28;20499;-64
2022/12/22 14:05:16;;;;;;;14.67;12.33;;;9.30;1.00;;;;;;5022855;28;20495;-64
2022/12/22 14:08:01;;;;;;;16.30;13.07;;;9.20;1.00;;;;;;5025110;28;20473;-64
2022/12/22 14:10:32;;;;;;;18.50;13.03;;;9.10;1.00;;;;;;5013424;28;20843;-64
2022/12/22 14:13:04;;;;;;;16.30;13.20;;;9.10;99.90;;;;;;5023655;28;20759;-64
2022/12/22 14:19:43;;;;;;;16.53;11.70;;;9.10;1.00;;;;;;5017915;28;20605;-64
2022/12/22 14:22:13;;;;;;;13.97;10.90;;;9.00;1.00;;;;;;5020037;28;20560;-64
2022/12/22 14:24:46;;;;;;;11.47;9.77;;;9.00;99.90;;;;;;5018356;28;20464;-64
2022/12/22 14:27:22;;;;;;;16.07;11.30;;;9.00;99.90;;;;;;5017741;28;20634;-64
2022/12/22 14:29:49;;;;;;;13.30;10.47;;;9.10;1.00;;;;;;5016515;28;20455;-64
2022/12/22 14:32:35;;;;;;;15.80;10.90;;;9.00;99.90;;;;;;5016308;28;20463;-64
2022/12/22 14:35:02;;;;;;;13.73;10.63;;;9.00;99.90;;;;;;5016448;28;20462;-64
2022/12/22 14:37:29;;;;;;;14.70;11.20;;;9.10;1.00;;;;;;5015969;28;20460;-64
2022/12/22 14:39:58;;;;;;;16.90;12.10;;;9.00;1.00;;;;;;5016007;28;20559;-64
2022/12/22 14:42:25;;;;;;;15.80;10.17;;;9.00;1.00;;;;;;5016586;28;20495;-64
2022/12/22 14:44:52;;;;;;;13.90;10.27;;;9.00;1.00;;;;;;5017821;28;20470;-64
2022/12/22 14:47:24;;;;;;;13.70;10.60;;;9.00;1.00;;;;;;5017377;28;20463;-64
2022/12/22 14:49:54;;;;;;;13.00;9.13;;;9.00;99.90;;;;;;5017365;28;20564;-64
2022/12/22 14:52:26;;;;;;;14.97;9.93;;;9.00;99.90;;;;;;5017620;28;20550;-64
2022/12/22 14:54:55;;;;;;;14.03;9.63;;;9.00;90.00;;;;;;5017454;28;20442;-63
2022/12/22 14:57:35;;;;;;;13.90;10.60;;;9.00;36.90;;;;;;5017593;28;20558;-64
2022/12/22 15:00:05;;;;;;;13.00;9.47;;;9.00;77.90;;;;;;5017983;28;20442;-64
2022/12/22 15:02:35;;;;;;;11.60;9.70;;;9.00;99.90;;;;;;5016820;28;20578;-64
2022/12/22 15:05:16;;;;;;;14.90;9.77;;;8.90;99.90;;;;;;5016916;28;20924;-64
2022/12/22 15:07:46;;;;;;;15.40;10.80;;;8.90;1.00;;;;;;5017181;28;20468;-64
2022/12/22 15:10:13;;;;;;;15.43;12.13;;;8.90;1.00;;;;;;5017555;28;20563;-64
2022/12/22 15:12:42;;;;;;;13.80;10.20;;;8.80;1.00;;;;;;5017096;28;20882;-64
2022/12/22 15:15:16;;;;;;;14.17;11.10;;;8.80;1.00;;;;;;5017394;28;20909;-64
2022/12/22 15:17:46;;;;;;;13.87;10.27;;;8.70;1.00;;;;;;5016815;28;20486;-64
2022/12/22 15:20:19;;;;;;;15.17;10.73;;;8.70;67.20;;;;;;5015939;28;20490;-64
2022/12/22 15:22:46;;;;;;;15.43;9.93;;;8.60;99.90;;;;;;5015824;28;20488;-64
2022/12/22 15:25:15;;;;;;;15.57;11.20;;;8.60;99.90;;;;;;5015948;28;20869;-64
2022/12/22 15:27:44;;;;;;;15.93;11.00;;;8.60;1.00;;;;;;5015782;28;20917;-64
2022/12/22 15:30:13;;;;;;;13.63;10.40;;;8.60;1.00;;;;;;5024652;28;20481;-64
2022/12/22 15:32:41;;;;;;;13.63;10.97;;;8.60;99.90;;;;;;5036589;28;20886;-64
2022/12/22 15:35:18;;;;;;;16.60;10.70;;;8.60;99.90;;;;;;5037895;28;20471;-64
2022/12/22 15:37:45;;;;;;;16.20;11.93;;;8.60;99.90;;;;;;5040747;28;20512;-63
2022/12/22 15:40:20;;;;;;;16.27;12.27;;;8.60;99.90;;;;;;5040909;28;20461;-64
2022/12/22 15:42:49;;;;;;;15.57;10.80;;;8.50;1.00;;;;;;5040685;28;20469;-63
2022/12/22 15:45:17;;;;;;;16.60;12.07;;;8.50;99.90;;;;;;5040737;28;20441;-63
2022/12/22 15:47:47;;;;;;;16.60;11.30;;;8.50;99.90;;;;;;5019872;28;20450;-63
2022/12/22 15:50:17;;;;;;;17.63;12.87;;;8.50;1.00;;;;;;5020975;28;20471;-63
2022/12/22 15:52:50;;;;;;;15.63;11.17;;;8.50;1.00;;;;;;5021546;28;20460;-63
2022/12/22 15:55:18;;;;;;;15.50;12.10;;;8.40;1.00;;;;;;5020463;28;20475;-64
2022/12/22 15:57:46;;;;;;;19.40;11.93;;;8.40;99.90;;;;;;5020036;28;20445;-63
2022/12/22 16:00:16;;;;;;;13.73;10.93;;;8.40;1.00;;;;;;5020680;28;20464;-63
2022/12/22 16:02:43;;;;;;;16.47;12.10;;;8.40;99.90;;;;;;5020034;28;20805;-64
2022/12/22 16:05:12;;;;;;;15.10;11.17;;;8.40;1.00;;;;;;5019016;28;20749;-64
2022/12/22 16:07:40;;;;;;;18.67;11.80;;;8.40;99.90;;;;;;5021209;28;20464;-64
2022/12/22 16:10:19;;;;;;;22.67;14.40;;;8.40;99.90;;;;;;5039057;28;20498;-64
2022/12/22 16:12:53;;;;;;;15.40;11.17;;;8.50;99.90;;;;;;5038926;28;20534;-64
2022/12/22 16:15:25;;;;;;;14.87;11.50;;;8.40;99.90;;;;;;5038713;28;20463;-64
2022/12/22 16:17:52;;;;;;;13.63;11.30;;;8.50;99.90;;;;;;5038580;28;20505;-63
2022/12/22 16:20:20;;;;;;;13.57;11.70;;;8.40;1.00;;;;;;5040504;28;20766;-62
2022/12/22 16:22:48;;;;;;;15.37;11.30;;;8.40;1.00;;;;;;5040112;28;20501;-62
2022/12/22 16:25:19;;;;;;;13.07;11.20;;;8.40;36.50;;;;;;5039836;28;20441;-64
2022/12/22 16:27:48;;;;;;;16.37;11.90;;;8.40;99.90;;;;;;5040208;28;20463;-64
2022/12/22 16:30:19;;;;;;;14.37;10.30;;;8.40;99.90;;;;;;5039599;28;20473;-65
2022/12/22 16:32:47;;;;;;;16.33;10.20;;;8.30;99.90;;;;;;5040052;28;20920;-67
2022/12/22 16:35:17;;;;;;;14.33;10.80;;;8.30;99.90;;;;;;5040129;28;20458;-67
2022/12/22 16:37:45;;;;;;;13.67;9.97;;;8.40;99.90;;;;;;5040327;28;20545;-67
2022/12/22 16:40:13;;;;;;;13.23;9.70;;;8.30;99.90;;;;;;5047146;28;20460;-67
2022/12/22 16:42:42;;;;;;;12.40;9.70;;;8.30;99.90;;;;;;5059465;28;20946;-65
2022/12/22 16:45:19;;;;;;;13.00;10.10;;;8.20;99.90;;;;;;5059790;28;20462;-65
2022/12/22 16:47:49;;;;;;;16.13;12.30;;;8.20;99.90;;;;;;5037832;28;20462;-67